sensor_id;sensor_type;location;lat;lon;timestamp;temperature;humidity
6078;DHT22;3067;49.470;10.394;2024-02-14T00:00:44;4.00;70.40
6078;DHT22;3067;49.470;10.394;2024-02-14T00:03:12;4.00;70.30
6078;DHT22;3067;49.470;10.394;2024-02-14T00:05:40;3.90;70.40
6078;DHT22;3067;49.470;10.394;2024-02-14T00:08:07;3.90;70.90
6078;DHT22;3067;49.470;10.394;2024-02-14T00:10:34;3.70;71.40
6078;DHT22;3067;49.470;10.394;2024-02-14T00:13:01;3.70;71.70
6078;DHT22;3067;49.470;10.394;2024-02-14T00:15:29;3.70;72.20
6078;DHT22;3067;49.470;10.394;2024-02-14T00:17:56;3.60;72.40
6078;DHT22;3067;49.470;10.394;2024-02-14T00:20:23;3.60;72.50
6078;DHT22;3067;49.470;10.394;2024-02-14T00:22:52;3.60;72.50
6078;DHT22;3067;49.470;10.394;2024-02-14T00:25:19;3.50;72.80
6078;DHT22;3067;49.470;10.394;2024-02-14T00:27:46;3.60;72.80
6078;DHT22;3067;49.470;10.394;2024-02-14T00:30:13;3.60;72.90
6078;DHT22;3067;49.470;10.394;2024-02-14T00:32:40;3.60;72.80
6078;DHT22;3067;49.470;10.394;2024-02-14T00:35:08;3.60;72.70
6078;DHT22;3067;49.470;10.394;2024-02-14T00:37:35;3.70;72.50
6078;DHT22;3067;49.470;10.394;2024-02-14T00:40:06;3.60;72.60
6078;DHT22;3067;49.470;10.394;2024-02-14T00:42:33;3.60;72.60
6078;DHT22;3067;49.470;10.394;2024-02-14T00:45:00;3.60;72.60
6078;DHT22;3067;49.470;10.394;2024-02-14T00:47:28;3.60;72.60
6078;DHT22;3067;49.470;10.394;2024-02-14T00:49:55;3.60;72.50
6078;DHT22;3067;49.470;10.394;2024-02-14T00:52:23;3.70;72.30
6078;DHT22;3067;49.470;10.394;2024-02-14T00:54:50;3.90;72.00
6078;DHT22;3067;49.470;10.394;2024-02-14T00:57:19;3.90;71.70
6078;DHT22;3067;49.470;10.394;2024-02-14T00:59:46;4.00;71.50
6078;DHT22;3067;49.470;10.394;2024-02-14T01:02:13;3.90;71.20
6078;DHT22;3067;49.470;10.394;2024-02-14T01:04:40;4.00;71.20
6078;DHT22;3067;49.470;10.394;2024-02-14T01:07:07;4.20;71.10
6078;DHT22;3067;49.470;10.394;2024-02-14T01:09:34;4.30;70.50
6078;DHT22;3067;49.470;10.394;2024-02-14T01:12:02;4.30;69.60
6078;DHT22;3067;49.470;10.394;2024-02-14T01:14:31;4.10;69.90
6078;DHT22;3067;49.470;10.394;2024-02-14T01:16:58;4.10;70.30
6078;DHT22;3067;49.470;10.394;2024-02-14T01:19:25;4.00;70.50
6078;DHT22;3067;49.470;10.394;2024-02-14T01:21:54;3.90;71.00
6078;DHT22;3067;49.470;10.394;2024-02-14T01:24:22;3.90;71.10
6078;DHT22;3067;49.470;10.394;2024-02-14T01:26:52;3.90;71.10
6078;DHT22;3067;49.470;10.394;2024-02-14T01:29:21;3.90;71.10
6078;DHT22;3067;49.470;10.394;2024-02-14T01:31:50;3.90;71.10
6078;DHT22;3067;49.470;10.394;2024-02-14T01:34:17;3.80;71.40
6078;DHT22;3067;49.470;10.394;2024-02-14T01:36:44;3.80;71.50
6078;DHT22;3067;49.470;10.394;2024-02-14T01:39:11;3.70;71.90
6078;DHT22;3067;49.470;10.394;2024-02-14T01:41:38;3.60;72.50
6078;DHT22;3067;49.470;10.394;2024-02-14T01:44:05;3.60;72.50
6078;DHT22;3067;49.470;10.394;2024-02-14T01:46:32;3.60;72.70
6078;DHT22;3067;49.470;10.394;2024-02-14T01:49:01;3.50;73.40
6078;DHT22;3067;49.470;10.394;2024-02-14T01:51:30;3.50;73.60
6078;DHT22;3067;49.470;10.394;2024-02-14T01:53:58;3.50;73.80
6078;DHT22;3067;49.470;10.394;2024-02-14T01:56:25;3.50;74.00
6078;DHT22;3067;49.470;10.394;2024-02-14T01:58:53;3.50;74.00
6078;DHT22;3067;49.470;10.394;2024-02-14T02:01:21;3.50;73.90
6078;DHT22;3067;49.470;10.394;2024-02-14T02:03:49;3.50;73.70
6078;DHT22;3067;49.470;10.394;2024-02-14T02:06:18;3.60;73.60
6078;DHT22;3067;49.470;10.394;2024-02-14T02:08:45;3.60;73.20
6078;DHT22;3067;49.470;10.394;2024-02-14T02:11:13;3.70;72.90
6078;DHT22;3067;49.470;10.394;2024-02-14T02:13:40;3.90;72.50
6078;DHT22;3067;49.470;10.394;2024-02-14T02:16:07;3.90;72.20
6078;DHT22;3067;49.470;10.394;2024-02-14T02:18:35;3.90;71.80
6078;DHT22;3067;49.470;10.394;2024-02-14T02:21:03;4.10;71.50
6078;DHT22;3067;49.470;10.394;2024-02-14T02:23:33;4.10;71.10
6078;DHT22;3067;49.470;10.394;2024-02-14T02:26:01;4.20;70.80
6078;DHT22;3067;49.470;10.394;2024-02-14T02:28:28;4.20;70.50
6078;DHT22;3067;49.470;10.394;2024-02-14T02:30:55;4.20;70.50
6078;DHT22;3067;49.470;10.394;2024-02-14T02:33:22;4.20;70.30
6078;DHT22;3067;49.470;10.394;2024-02-14T02:35:50;4.20;70.30
6078;DHT22;3067;49.470;10.394;2024-02-14T02:38:17;4.10;69.80
6078;DHT22;3067;49.470;10.394;2024-02-14T02:40:47;4.00;70.00
6078;DHT22;3067;49.470;10.394;2024-02-14T02:43:14;4.10;69.70
6078;DHT22;3067;49.470;10.394;2024-02-14T02:45:41;4.00;69.60
6078;DHT22;3067;49.470;10.394;2024-02-14T02:48:09;3.90;70.30
6078;DHT22;3067;49.470;10.394;2024-02-14T02:50:36;3.70;70.90
6078;DHT22;3067;49.470;10.394;2024-02-14T02:53:04;3.70;70.90
6078;DHT22;3067;49.470;10.394;2024-02-14T02:55:31;3.70;71.00
6078;DHT22;3067;49.470;10.394;2024-02-14T02:58:00;3.60;71.40
6078;DHT22;3067;49.470;10.394;2024-02-14T03:00:27;3.50;71.70
6078;DHT22;3067;49.470;10.394;2024-02-14T03:02:54;3.50;72.00
6078;DHT22;3067;49.470;10.394;2024-02-14T03:05:21;3.50;72.10
6078;DHT22;3067;49.470;10.394;2024-02-14T03:07:49;3.40;72.50
6078;DHT22;3067;49.470;10.394;2024-02-14T03:10:17;3.50;72.60
6078;DHT22;3067;49.470;10.394;2024-02-14T03:12:45;3.50;72.60
6078;DHT22;3067;49.470;10.394;2024-02-14T03:15:15;3.60;72.40
6078;DHT22;3067;49.470;10.394;2024-02-14T03:17:42;3.60;72.30
6078;DHT22;3067;49.470;10.394;2024-02-14T03:20:10;3.70;72.20
6078;DHT22;3067;49.470;10.394;2024-02-14T03:22:38;3.70;72.00
6078;DHT22;3067;49.470;10.394;2024-02-14T03:25:09;3.80;71.80
6078;DHT22;3067;49.470;10.394;2024-02-14T03:27:36;3.90;71.60
6078;DHT22;3067;49.470;10.394;2024-02-14T03:30:04;3.90;71.80
6078;DHT22;3067;49.470;10.394;2024-02-14T03:32:33;3.90;71.70
6078;DHT22;3067;49.470;10.394;2024-02-14T03:35:00;3.90;71.30
6078;DHT22;3067;49.470;10.394;2024-02-14T03:37:27;3.90;71.50
6078;DHT22;3067;49.470;10.394;2024-02-14T03:39:54;3.90;71.20
6078;DHT22;3067;49.470;10.394;2024-02-14T03:42:21;4.00;71.20
6078;DHT22;3067;49.470;10.394;2024-02-14T03:44:48;4.00;71.00
6078;DHT22;3067;49.470;10.394;2024-02-14T03:47:15;4.00;70.70
6078;DHT22;3067;49.470;10.394;2024-02-14T03:49:44;4.10;70.70
6078;DHT22;3067;49.470;10.394;2024-02-14T03:52:11;4.10;70.40
6078;DHT22;3067;49.470;10.394;2024-02-14T03:54:38;4.20;70.00
6078;DHT22;3067;49.470;10.394;2024-02-14T03:57:05;4.20;70.00
6078;DHT22;3067;49.470;10.394;2024-02-14T03:59:36;4.30;69.90
6078;DHT22;3067;49.470;10.394;2024-02-14T04:02:04;4.40;69.40
6078;DHT22;3067;49.470;10.394;2024-02-14T04:04:32;4.40;68.90
6078;DHT22;3067;49.470;10.394;2024-02-14T04:07:03;4.40;68.60
6078;DHT22;3067;49.470;10.394;2024-02-14T04:09:32;4.50;68.50
6078;DHT22;3067;49.470;10.394;2024-02-14T04:11:59;4.50;68.50
6078;DHT22;3067;49.470;10.394;2024-02-14T04:14:26;4.50;68.90
6078;DHT22;3067;49.470;10.394;2024-02-14T04:16:54;4.40;69.00
6078;DHT22;3067;49.470;10.394;2024-02-14T04:19:21;4.40;69.00
6078;DHT22;3067;49.470;10.394;2024-02-14T04:21:48;4.50;69.00
6078;DHT22;3067;49.470;10.394;2024-02-14T04:24:17;4.50;69.00
6078;DHT22;3067;49.470;10.394;2024-02-14T04:26:44;4.50;68.90
6078;DHT22;3067;49.470;10.394;2024-02-14T04:29:11;4.60;68.70
6078;DHT22;3067;49.470;10.394;2024-02-14T04:31:38;4.70;68.80
6078;DHT22;3067;49.470;10.394;2024-02-14T04:34:05;4.70;68.40
6078;DHT22;3067;49.470;10.394;2024-02-14T04:36:34;4.80;68.50
6078;DHT22;3067;49.470;10.394;2024-02-14T04:39:02;4.90;68.50
6078;DHT22;3067;49.470;10.394;2024-02-14T04:41:30;4.90;68.30
6078;DHT22;3067;49.470;10.394;2024-02-14T04:43:58;5.00;68.10
6078;DHT22;3067;49.470;10.394;2024-02-14T04:46:25;5.00;68.00
6078;DHT22;3067;49.470;10.394;2024-02-14T04:48:52;5.00;67.80
6078;DHT22;3067;49.470;10.394;2024-02-14T04:51:19;5.10;67.70
6078;DHT22;3067;49.470;10.394;2024-02-14T04:53:46;5.10;67.50
6078;DHT22;3067;49.470;10.394;2024-02-14T04:56:13;5.30;67.20
6078;DHT22;3067;49.470;10.394;2024-02-14T04:58:41;5.30;66.50
6078;DHT22;3067;49.470;10.394;2024-02-14T05:01:08;5.30;66.20
6078;DHT22;3067;49.470;10.394;2024-02-14T05:03:35;5.30;66.20
6078;DHT22;3067;49.470;10.394;2024-02-14T05:06:03;5.30;65.90
6078;DHT22;3067;49.470;10.394;2024-02-14T05:08:31;5.30;65.60
6078;DHT22;3067;49.470;10.394;2024-02-14T05:10:59;5.40;65.30
6078;DHT22;3067;49.470;10.394;2024-02-14T05:13:26;5.50;65.00
6078;DHT22;3067;49.470;10.394;2024-02-14T05:15:54;5.50;65.40
6078;DHT22;3067;49.470;10.394;2024-02-14T05:18:22;5.40;65.50
6078;DHT22;3067;49.470;10.394;2024-02-14T05:20:49;5.40;65.40
6078;DHT22;3067;49.470;10.394;2024-02-14T05:23:16;5.40;65.40
6078;DHT22;3067;49.470;10.394;2024-02-14T05:25:44;5.50;65.40
6078;DHT22;3067;49.470;10.394;2024-02-14T05:28:11;5.50;64.90
6078;DHT22;3067;49.470;10.394;2024-02-14T05:30:40;5.50;64.70
6078;DHT22;3067;49.470;10.394;2024-02-14T05:33:08;5.50;65.00
6078;DHT22;3067;49.470;10.394;2024-02-14T05:35:36;5.50;65.10
6078;DHT22;3067;49.470;10.394;2024-02-14T05:38:03;5.30;65.60
6078;DHT22;3067;49.470;10.394;2024-02-14T05:40:33;5.50;65.70
6078;DHT22;3067;49.470;10.394;2024-02-14T05:43:05;5.50;65.60
6078;DHT22;3067;49.470;10.394;2024-02-14T05:45:32;5.50;65.40
6078;DHT22;3067;49.470;10.394;2024-02-14T05:47:59;5.50;65.60
6078;DHT22;3067;49.470;10.394;2024-02-14T05:50:28;5.50;65.40
6078;DHT22;3067;49.470;10.394;2024-02-14T05:52:55;5.50;65.50
6078;DHT22;3067;49.470;10.394;2024-02-14T05:55:23;5.50;65.70
6078;DHT22;3067;49.470;10.394;2024-02-14T05:57:50;5.50;65.70
6078;DHT22;3067;49.470;10.394;2024-02-14T06:00:19;5.50;65.80
6078;DHT22;3067;49.470;10.394;2024-02-14T06:02:46;5.60;66.00
6078;DHT22;3067;49.470;10.394;2024-02-14T06:05:14;5.50;66.40
6078;DHT22;3067;49.470;10.394;2024-02-14T06:07:42;5.50;66.80
6078;DHT22;3067;49.470;10.394;2024-02-14T06:10:10;5.30;67.10
6078;DHT22;3067;49.470;10.394;2024-02-14T06:12:38;5.30;67.10
6078;DHT22;3067;49.470;10.394;2024-02-14T06:15:07;5.10;67.30
6078;DHT22;3067;49.470;10.394;2024-02-14T06:17:34;5.10;67.80
6078;DHT22;3067;49.470;10.394;2024-02-14T06:20:01;5.10;68.00
6078;DHT22;3067;49.470;10.394;2024-02-14T06:22:31;5.10;68.00
6078;DHT22;3067;49.470;10.394;2024-02-14T06:25:00;5.00;68.60
6078;DHT22;3067;49.470;10.394;2024-02-14T06:27:30;5.00;68.80
6078;DHT22;3067;49.470;10.394;2024-02-14T06:29:58;5.00;69.00
6078;DHT22;3067;49.470;10.394;2024-02-14T06:32:25;5.00;69.10
6078;DHT22;3067;49.470;10.394;2024-02-14T06:34:52;5.00;68.90
6078;DHT22;3067;49.470;10.394;2024-02-14T06:37:19;5.00;69.00
6078;DHT22;3067;49.470;10.394;2024-02-14T06:39:46;5.00;69.00
6078;DHT22;3067;49.470;10.394;2024-02-14T06:42:17;5.00;69.00
6078;DHT22;3067;49.470;10.394;2024-02-14T06:44:45;5.00;69.30
6078;DHT22;3067;49.470;10.394;2024-02-14T06:47:13;5.00;69.40
6078;DHT22;3067;49.470;10.394;2024-02-14T06:49:40;5.00;69.20
6078;DHT22;3067;49.470;10.394;2024-02-14T06:52:07;5.00;69.20
6078;DHT22;3067;49.470;10.394;2024-02-14T06:54:34;5.10;69.20
6078;DHT22;3067;49.470;10.394;2024-02-14T06:57:01;5.20;69.40
6078;DHT22;3067;49.470;10.394;2024-02-14T06:59:29;5.30;69.30
6078;DHT22;3067;49.470;10.394;2024-02-14T07:01:56;5.30;69.00
6078;DHT22;3067;49.470;10.394;2024-02-14T07:04:25;5.40;69.00
6078;DHT22;3067;49.470;10.394;2024-02-14T07:06:53;5.50;67.90
6078;DHT22;3067;49.470;10.394;2024-02-14T07:09:20;5.50;68.10
6078;DHT22;3067;49.470;10.394;2024-02-14T07:11:47;5.70;67.80
6078;DHT22;3067;49.470;10.394;2024-02-14T07:14:14;5.80;67.90
6078;DHT22;3067;49.470;10.394;2024-02-14T07:16:43;5.80;67.50
6078;DHT22;3067;49.470;10.394;2024-02-14T07:19:10;5.90;67.70
6078;DHT22;3067;49.470;10.394;2024-02-14T07:21:37;5.90;67.20
6078;DHT22;3067;49.470;10.394;2024-02-14T07:24:05;6.00;67.10
6078;DHT22;3067;49.470;10.394;2024-02-14T07:26:32;6.10;66.90
6078;DHT22;3067;49.470;10.394;2024-02-14T07:28:59;6.10;66.20
6078;DHT22;3067;49.470;10.394;2024-02-14T07:31:29;6.20;66.40
6078;DHT22;3067;49.470;10.394;2024-02-14T07:34:00;6.30;66.60
6078;DHT22;3067;49.470;10.394;2024-02-14T07:36:28;6.40;66.00
6078;DHT22;3067;49.470;10.394;2024-02-14T07:38:56;6.40;65.60
6078;DHT22;3067;49.470;10.394;2024-02-14T07:41:23;6.40;65.80
6078;DHT22;3067;49.470;10.394;2024-02-14T07:43:50;6.50;66.20
6078;DHT22;3067;49.470;10.394;2024-02-14T07:46:18;6.50;66.00
6078;DHT22;3067;49.470;10.394;2024-02-14T07:48:48;6.50;65.70
6078;DHT22;3067;49.470;10.394;2024-02-14T07:51:16;6.50;65.70
6078;DHT22;3067;49.470;10.394;2024-02-14T07:53:44;6.60;65.90
6078;DHT22;3067;49.470;10.394;2024-02-14T07:56:11;6.60;66.20
6078;DHT22;3067;49.470;10.394;2024-02-14T07:58:39;6.60;66.00
6078;DHT22;3067;49.470;10.394;2024-02-14T08:01:06;6.60;66.40
6078;DHT22;3067;49.470;10.394;2024-02-14T08:03:33;6.60;66.50
6078;DHT22;3067;49.470;10.394;2024-02-14T08:06:00;6.60;66.80
6078;DHT22;3067;49.470;10.394;2024-02-14T08:08:28;6.60;66.60
6078;DHT22;3067;49.470;10.394;2024-02-14T08:10:55;6.50;66.90
6078;DHT22;3067;49.470;10.394;2024-02-14T08:13:22;6.60;66.90
6078;DHT22;3067;49.470;10.394;2024-02-14T08:15:49;6.60;66.90
6078;DHT22;3067;49.470;10.394;2024-02-14T08:18:16;6.60;67.40
6078;DHT22;3067;49.470;10.394;2024-02-14T08:20:43;6.60;67.30
6078;DHT22;3067;49.470;10.394;2024-02-14T08:23:10;6.80;67.40
6078;DHT22;3067;49.470;10.394;2024-02-14T08:25:39;6.90;66.90
6078;DHT22;3067;49.470;10.394;2024-02-14T08:28:06;7.00;66.20
6078;DHT22;3067;49.470;10.394;2024-02-14T08:30:34;7.00;66.20
6078;DHT22;3067;49.470;10.394;2024-02-14T08:33:01;7.20;65.50
6078;DHT22;3067;49.470;10.394;2024-02-14T08:35:28;7.20;65.50
6078;DHT22;3067;49.470;10.394;2024-02-14T08:37:55;7.40;65.40
6078;DHT22;3067;49.470;10.394;2024-02-14T08:40:22;7.50;65.30
6078;DHT22;3067;49.470;10.394;2024-02-14T08:42:50;7.50;65.00
6078;DHT22;3067;49.470;10.394;2024-02-14T08:45:17;7.60;64.50
6078;DHT22;3067;49.470;10.394;2024-02-14T08:47:45;7.70;64.60
6078;DHT22;3067;49.470;10.394;2024-02-14T08:50:12;7.80;63.90
6078;DHT22;3067;49.470;10.394;2024-02-14T08:52:39;7.90;62.80
6078;DHT22;3067;49.470;10.394;2024-02-14T08:55:06;8.00;62.40
6078;DHT22;3067;49.470;10.394;2024-02-14T08:57:40;8.10;62.20
6078;DHT22;3067;49.470;10.394;2024-02-14T09:00:09;8.20;62.30
6078;DHT22;3067;49.470;10.394;2024-02-14T09:02:40;8.20;62.60
6078;DHT22;3067;49.470;10.394;2024-02-14T09:05:08;8.30;61.80
6078;DHT22;3067;49.470;10.394;2024-02-14T09:07:35;8.30;61.10
6078;DHT22;3067;49.470;10.394;2024-02-14T09:10:02;8.40;61.90
6078;DHT22;3067;49.470;10.394;2024-02-14T09:12:31;8.40;61.80
6078;DHT22;3067;49.470;10.394;2024-02-14T09:14:59;8.50;61.80
6078;DHT22;3067;49.470;10.394;2024-02-14T09:17:27;8.50;62.20
6078;DHT22;3067;49.470;10.394;2024-02-14T09:19:54;8.60;62.40
6078;DHT22;3067;49.470;10.394;2024-02-14T09:22:21;8.70;61.60
6078;DHT22;3067;49.470;10.394;2024-02-14T09:24:49;8.80;61.60
6078;DHT22;3067;49.470;10.394;2024-02-14T09:27:18;8.80;62.00
6078;DHT22;3067;49.470;10.394;2024-02-14T09:29:46;8.80;62.00
6078;DHT22;3067;49.470;10.394;2024-02-14T09:32:13;8.80;62.20
6078;DHT22;3067;49.470;10.394;2024-02-14T09:34:41;8.80;62.10
6078;DHT22;3067;49.470;10.394;2024-02-14T09:37:08;8.70;62.70
6078;DHT22;3067;49.470;10.394;2024-02-14T09:39:36;8.70;63.00
6078;DHT22;3067;49.470;10.394;2024-02-14T09:42:08;8.70;63.50
6078;DHT22;3067;49.470;10.394;2024-02-14T09:44:36;8.60;63.40
6078;DHT22;3067;49.470;10.394;2024-02-14T09:47:05;8.70;64.40
6078;DHT22;3067;49.470;10.394;2024-02-14T09:49:34;8.80;64.40
6078;DHT22;3067;49.470;10.394;2024-02-14T09:52:03;8.80;64.40
6078;DHT22;3067;49.470;10.394;2024-02-14T09:54:31;8.80;65.00
6078;DHT22;3067;49.470;10.394;2024-02-14T09:57:00;8.90;64.70
6078;DHT22;3067;49.470;10.394;2024-02-14T09:59:29;8.80;64.70
6078;DHT22;3067;49.470;10.394;2024-02-14T10:01:56;8.90;64.80
6078;DHT22;3067;49.470;10.394;2024-02-14T10:04:23;8.90;64.60
6078;DHT22;3067;49.470;10.394;2024-02-14T10:06:51;8.80;65.20
6078;DHT22;3067;49.470;10.394;2024-02-14T10:09:22;8.80;65.00
6078;DHT22;3067;49.470;10.394;2024-02-14T10:11:51;8.80;65.20
6078;DHT22;3067;49.470;10.394;2024-02-14T10:14:18;8.80;65.80
6078;DHT22;3067;49.470;10.394;2024-02-14T10:16:45;8.70;65.80
6078;DHT22;3067;49.470;10.394;2024-02-14T10:19:15;8.80;65.50
6078;DHT22;3067;49.470;10.394;2024-02-14T10:21:45;8.80;65.50
6078;DHT22;3067;49.470;10.394;2024-02-14T10:24:24;8.90;65.30
6078;DHT22;3067;49.470;10.394;2024-02-14T10:26:51;8.90;65.20
6078;DHT22;3067;49.470;10.394;2024-02-14T10:29:19;8.90;65.50
6078;DHT22;3067;49.470;10.394;2024-02-14T10:31:47;8.90;66.10
6078;DHT22;3067;49.470;10.394;2024-02-14T10:34:14;8.90;66.40
6078;DHT22;3067;49.470;10.394;2024-02-14T10:36:43;9.00;66.40
6078;DHT22;3067;49.470;10.394;2024-02-14T10:39:11;8.90;66.60
6078;DHT22;3067;49.470;10.394;2024-02-14T10:41:40;8.90;66.60
6078;DHT22;3067;49.470;10.394;2024-02-14T10:44:07;8.90;66.80
6078;DHT22;3067;49.470;10.394;2024-02-14T10:46:37;8.90;67.20
6078;DHT22;3067;49.470;10.394;2024-02-14T10:49:05;8.90;67.50
6078;DHT22;3067;49.470;10.394;2024-02-14T10:51:34;8.80;67.10
6078;DHT22;3067;49.470;10.394;2024-02-14T10:54:04;8.80;67.50
6078;DHT22;3067;49.470;10.394;2024-02-14T10:56:32;8.80;67.60
6078;DHT22;3067;49.470;10.394;2024-02-14T10:59:01;8.90;67.40
6078;DHT22;3067;49.470;10.394;2024-02-14T11:01:29;8.90;67.20
6078;DHT22;3067;49.470;10.394;2024-02-14T11:03:59;9.00;67.10
6078;DHT22;3067;49.470;10.394;2024-02-14T11:06:26;9.10;66.60
6078;DHT22;3067;49.470;10.394;2024-02-14T11:09:00;9.20;66.90
6078;DHT22;3067;49.470;10.394;2024-02-14T11:11:32;9.40;67.20
6078;DHT22;3067;49.470;10.394;2024-02-14T11:14:01;9.50;66.20
6078;DHT22;3067;49.470;10.394;2024-02-14T11:16:31;9.50;66.00
6078;DHT22;3067;49.470;10.394;2024-02-14T11:19:11;9.60;66.20
6078;DHT22;3067;49.470;10.394;2024-02-14T11:21:40;9.60;66.00
6078;DHT22;3067;49.470;10.394;2024-02-14T11:24:11;9.50;66.70
6078;DHT22;3067;49.470;10.394;2024-02-14T11:26:39;9.50;67.20
6078;DHT22;3067;49.470;10.394;2024-02-14T11:29:07;9.60;67.30
6078;DHT22;3067;49.470;10.394;2024-02-14T11:31:40;9.70;67.20
6078;DHT22;3067;49.470;10.394;2024-02-14T11:34:07;9.70;66.80
6078;DHT22;3067;49.470;10.394;2024-02-14T11:36:36;9.70;67.30
6078;DHT22;3067;49.470;10.394;2024-02-14T11:39:04;9.70;67.00
6078;DHT22;3067;49.470;10.394;2024-02-14T11:41:32;9.80;66.90
6078;DHT22;3067;49.470;10.394;2024-02-14T11:44:01;9.80;67.40
6078;DHT22;3067;49.470;10.394;2024-02-14T11:46:31;9.80;67.50
6078;DHT22;3067;49.470;10.394;2024-02-14T11:48:58;9.80;67.20
6078;DHT22;3067;49.470;10.394;2024-02-14T11:51:28;9.80;66.90
6078;DHT22;3067;49.470;10.394;2024-02-14T11:53:56;9.70;67.20
6078;DHT22;3067;49.470;10.394;2024-02-14T11:56:30;9.80;67.20
6078;DHT22;3067;49.470;10.394;2024-02-14T11:58:59;9.80;67.50
6078;DHT22;3067;49.470;10.394;2024-02-14T12:01:28;10.00;68.00
6078;DHT22;3067;49.470;10.394;2024-02-14T12:03:58;10.00;66.60
6078;DHT22;3067;49.470;10.394;2024-02-14T12:06:26;10.00;66.60
6078;DHT22;3067;49.470;10.394;2024-02-14T12:08:54;10.00;66.70
6078;DHT22;3067;49.470;10.394;2024-02-14T12:11:21;10.00;66.50
6078;DHT22;3067;49.470;10.394;2024-02-14T12:13:49;10.00;66.70
6078;DHT22;3067;49.470;10.394;2024-02-14T12:16:19;10.00;66.70
6078;DHT22;3067;49.470;10.394;2024-02-14T12:18:47;10.00;66.70
6078;DHT22;3067;49.470;10.394;2024-02-14T12:21:16;10.00;66.40
6078;DHT22;3067;49.470;10.394;2024-02-14T12:23:43;10.00;66.30
6078;DHT22;3067;49.470;10.394;2024-02-14T12:26:10;10.00;66.70
6078;DHT22;3067;49.470;10.394;2024-02-14T12:28:46;10.00;67.20
6078;DHT22;3067;49.470;10.394;2024-02-14T12:31:22;10.00;67.70
6078;DHT22;3067;49.470;10.394;2024-02-14T12:33:49;10.10;67.40
6078;DHT22;3067;49.470;10.394;2024-02-14T12:36:19;10.10;67.00
6078;DHT22;3067;49.470;10.394;2024-02-14T12:38:46;10.10;67.20
6078;DHT22;3067;49.470;10.394;2024-02-14T12:41:14;10.10;67.50
6078;DHT22;3067;49.470;10.394;2024-02-14T12:43:41;10.10;67.90
6078;DHT22;3067;49.470;10.394;2024-02-14T12:46:08;10.10;68.10
6078;DHT22;3067;49.470;10.394;2024-02-14T12:48:35;10.10;68.30
6078;DHT22;3067;49.470;10.394;2024-02-14T12:51:02;10.10;67.90
6078;DHT22;3067;49.470;10.394;2024-02-14T12:53:31;10.10;68.20
6078;DHT22;3067;49.470;10.394;2024-02-14T12:55:58;10.10;68.40
6078;DHT22;3067;49.470;10.394;2024-02-14T12:58:25;10.00;68.60
6078;DHT22;3067;49.470;10.394;2024-02-14T13:00:52;10.00;68.90
6078;DHT22;3067;49.470;10.394;2024-02-14T13:03:19;10.00;68.90
6078;DHT22;3067;49.470;10.394;2024-02-14T13:05:46;10.00;69.40
6078;DHT22;3067;49.470;10.394;2024-02-14T13:08:14;10.00;69.40
6078;DHT22;3067;49.470;10.394;2024-02-14T13:10:44;10.00;69.60
6078;DHT22;3067;49.470;10.394;2024-02-14T13:13:11;10.00;69.60
6078;DHT22;3067;49.470;10.394;2024-02-14T13:15:38;10.00;69.40
6078;DHT22;3067;49.470;10.394;2024-02-14T13:18:06;10.10;69.20
6078;DHT22;3067;49.470;10.394;2024-02-14T13:20:33;10.10;69.30
6078;DHT22;3067;49.470;10.394;2024-02-14T13:23:03;10.10;69.80
6078;DHT22;3067;49.470;10.394;2024-02-14T13:25:31;10.10;70.30
6078;DHT22;3067;49.470;10.394;2024-02-14T13:27:59;10.10;70.10
6078;DHT22;3067;49.470;10.394;2024-02-14T13:30:27;10.00;70.50
6078;DHT22;3067;49.470;10.394;2024-02-14T13:32:55;10.00;70.70
6078;DHT22;3067;49.470;10.394;2024-02-14T13:35:22;9.90;71.10
6078;DHT22;3067;49.470;10.394;2024-02-14T13:37:49;9.80;71.60
6078;DHT22;3067;49.470;10.394;2024-02-14T13:40:17;9.90;71.80
6078;DHT22;3067;49.470;10.394;2024-02-14T13:42:44;9.80;71.50
6078;DHT22;3067;49.470;10.394;2024-02-14T13:45:12;9.70;71.70
6078;DHT22;3067;49.470;10.394;2024-02-14T13:47:41;9.70;71.90
6078;DHT22;3067;49.470;10.394;2024-02-14T13:50:09;9.70;71.50
6078;DHT22;3067;49.470;10.394;2024-02-14T13:52:38;9.70;71.90
6078;DHT22;3067;49.470;10.394;2024-02-14T13:55:06;9.70;72.20
6078;DHT22;3067;49.470;10.394;2024-02-14T13:57:36;9.60;72.20
6078;DHT22;3067;49.470;10.394;2024-02-14T14:00:04;9.70;72.20
6078;DHT22;3067;49.470;10.394;2024-02-14T14:02:32;9.70;72.10
6078;DHT22;3067;49.470;10.394;2024-02-14T14:05:02;9.80;72.00
6078;DHT22;3067;49.470;10.394;2024-02-14T14:07:30;9.80;71.80
6078;DHT22;3067;49.470;10.394;2024-02-14T14:09:59;9.90;71.60
6078;DHT22;3067;49.470;10.394;2024-02-14T14:12:26;9.90;71.50
6078;DHT22;3067;49.470;10.394;2024-02-14T14:14:53;9.90;71.40
6078;DHT22;3067;49.470;10.394;2024-02-14T14:17:20;10.00;71.70
6078;DHT22;3067;49.470;10.394;2024-02-14T14:19:49;10.00;71.80
6078;DHT22;3067;49.470;10.394;2024-02-14T14:22:16;10.00;71.40
6078;DHT22;3067;49.470;10.394;2024-02-14T14:24:43;10.00;71.40
6078;DHT22;3067;49.470;10.394;2024-02-14T14:27:10;10.00;71.70
6078;DHT22;3067;49.470;10.394;2024-02-14T14:29:39;10.00;71.60
6078;DHT22;3067;49.470;10.394;2024-02-14T14:32:07;10.00;71.80
6078;DHT22;3067;49.470;10.394;2024-02-14T14:34:34;10.00;72.00
6078;DHT22;3067;49.470;10.394;2024-02-14T14:37:03;10.00;71.90
6078;DHT22;3067;49.470;10.394;2024-02-14T14:39:31;10.00;72.20
6078;DHT22;3067;49.470;10.394;2024-02-14T14:41:58;10.00;72.10
6078;DHT22;3067;49.470;10.394;2024-02-14T14:44:25;10.10;72.00
6078;DHT22;3067;49.470;10.394;2024-02-14T14:46:52;10.10;72.30
6078;DHT22;3067;49.470;10.394;2024-02-14T14:49:20;10.10;72.30
6078;DHT22;3067;49.470;10.394;2024-02-14T14:51:47;10.10;72.30
6078;DHT22;3067;49.470;10.394;2024-02-14T14:54:15;10.10;72.20
6078;DHT22;3067;49.470;10.394;2024-02-14T14:56:43;10.10;72.20
6078;DHT22;3067;49.470;10.394;2024-02-14T14:59:11;10.10;72.60
6078;DHT22;3067;49.470;10.394;2024-02-14T15:01:38;10.10;72.80
6078;DHT22;3067;49.470;10.394;2024-02-14T15:04:05;10.10;72.80
6078;DHT22;3067;49.470;10.394;2024-02-14T15:06:33;10.10;72.40
6078;DHT22;3067;49.470;10.394;2024-02-14T15:09:00;10.00;72.80
6078;DHT22;3067;49.470;10.394;2024-02-14T15:11:28;10.00;72.70
6078;DHT22;3067;49.470;10.394;2024-02-14T15:13:55;10.00;72.90
6078;DHT22;3067;49.470;10.394;2024-02-14T15:16:22;10.00;72.90
6078;DHT22;3067;49.470;10.394;2024-02-14T15:18:49;10.00;73.20
6078;DHT22;3067;49.470;10.394;2024-02-14T15:21:16;10.00;73.10
6078;DHT22;3067;49.470;10.394;2024-02-14T15:23:43;10.00;73.30
6078;DHT22;3067;49.470;10.394;2024-02-14T15:26:11;10.00;73.40
6078;DHT22;3067;49.470;10.394;2024-02-14T15:28:40;10.00;73.50
6078;DHT22;3067;49.470;10.394;2024-02-14T15:31:10;10.00;73.50
6078;DHT22;3067;49.470;10.394;2024-02-14T15:33:55;10.00;73.70
6078;DHT22;3067;49.470;10.394;2024-02-14T15:36:22;10.00;73.70
6078;DHT22;3067;49.470;10.394;2024-02-14T15:38:49;10.00;73.80
6078;DHT22;3067;49.470;10.394;2024-02-14T15:41:17;10.00;74.00
6078;DHT22;3067;49.470;10.394;2024-02-14T15:43:46;10.00;73.80
6078;DHT22;3067;49.470;10.394;2024-02-14T15:46:14;10.00;73.90
6078;DHT22;3067;49.470;10.394;2024-02-14T15:48:43;10.00;73.90
6078;DHT22;3067;49.470;10.394;2024-02-14T15:51:10;10.10;73.80
6078;DHT22;3067;49.470;10.394;2024-02-14T15:53:40;10.10;73.50
6078;DHT22;3067;49.470;10.394;2024-02-14T15:56:07;10.20;73.30
6078;DHT22;3067;49.470;10.394;2024-02-14T15:58:35;10.10;73.40
6078;DHT22;3067;49.470;10.394;2024-02-14T16:01:04;10.20;73.40